sensor_id;sensor_type;location;lat;lon;timestamp;P1;durP1;ratioP1;P2;durP2;ratioP2
56413;SDS011;42318;48.452;19.526;2023-08-08T00:04:40;2.85;;;0.40;;
56413;SDS011;42318;48.452;19.526;2023-08-08T00:09:40;1.48;;;0.50;;
56413;SDS011;42318;48.452;19.526;2023-08-08T00:14:41;1.20;;;0.40;;
56413;SDS011;42318;48.452;19.526;2023-08-08T00:19:42;0.43;;;0.20;;
56413;SDS011;42318;48.452;19.526;2023-08-08T00:24:43;1.60;;;0.30;;
56413;SDS011;42318;48.452;19.526;2023-08-08T00:29:44;0.77;;;0.28;;
56413;SDS011;42318;48.452;19.526;2023-08-08T00:34:46;0.88;;;0.30;;
56413;SDS011;42318;48.452;19.526;2023-08-08T00:39:46;1.27;;;0.38;;
56413;SDS011;42318;48.452;19.526;2023-08-08T00:44:47;1.45;;;0.25;;
56413;SDS011;42318;48.452;19.526;2023-08-08T00:49:48;0.90;;;0.40;;
56413;SDS011;42318;48.452;19.526;2023-08-08T00:54:49;1.92;;;0.40;;
56413;SDS011;42318;48.452;19.526;2023-08-08T00:59:51;0.85;;;0.30;;
56413;SDS011;42318;48.452;19.526;2023-08-08T01:04:52;1.02;;;0.20;;
56413;SDS011;42318;48.452;19.526;2023-08-08T01:09:54;1.52;;;0.40;;
56413;SDS011;42318;48.452;19.526;2023-08-08T01:15:04;0.40;;;0.30;;
56413;SDS011;42318;48.452;19.526;2023-08-08T01:20:08;1.05;;;0.40;;
56413;SDS011;42318;48.452;19.526;2023-08-08T01:25:11;0.50;;;0.20;;
56413;SDS011;42318;48.452;19.526;2023-08-08T01:30:12;0.38;;;0.25;;
56413;SDS011;42318;48.452;19.526;2023-08-08T01:35:13;0.95;;;0.30;;
56413;SDS011;42318;48.452;19.526;2023-08-08T01:40:15;1.20;;;0.30;;
56413;SDS011;42318;48.452;19.526;2023-08-08T01:45:18;1.13;;;0.30;;
56413;SDS011;42318;48.452;19.526;2023-08-08T01:50:20;0.73;;;0.40;;
56413;SDS011;42318;48.452;19.526;2023-08-08T01:55:21;0.98;;;0.30;;
56413;SDS011;42318;48.452;19.526;2023-08-08T02:00:22;0.38;;;0.28;;
56413;SDS011;42318;48.452;19.526;2023-08-08T02:05:23;0.30;;;0.30;;
56413;SDS011;42318;48.452;19.526;2023-08-08T02:10:24;1.25;;;0.30;;
56413;SDS011;42318;48.452;19.526;2023-08-08T02:15:25;0.50;;;0.28;;
56413;SDS011;42318;48.452;19.526;2023-08-08T02:20:26;0.40;;;0.20;;
56413;SDS011;42318;48.452;19.526;2023-08-08T02:25:27;1.13;;;0.50;;
56413;SDS011;42318;48.452;19.526;2023-08-08T02:30:28;0.52;;;0.40;;
56413;SDS011;42318;48.452;19.526;2023-08-08T02:35:28;1.55;;;0.30;;
56413;SDS011;42318;48.452;19.526;2023-08-08T02:40:30;1.40;;;0.20;;
56413;SDS011;42318;48.452;19.526;2023-08-08T02:45:31;0.43;;;0.20;;
56413;SDS011;42318;48.452;19.526;2023-08-08T02:50:31;1.23;;;0.30;;
56413;SDS011;42318;48.452;19.526;2023-08-08T02:55:32;0.63;;;0.40;;
56413;SDS011;42318;48.452;19.526;2023-08-08T03:00:33;0.75;;;0.65;;
56413;SDS011;42318;48.452;19.526;2023-08-08T03:05:34;2.13;;;1.52;;
56413;SDS011;42318;48.452;19.526;2023-08-08T03:10:35;0.98;;;0.55;;
56413;SDS011;42318;48.452;19.526;2023-08-08T03:15:35;0.30;;;0.20;;
56413;SDS011;42318;48.452;19.526;2023-08-08T03:20:36;0.65;;;0.20;;
56413;SDS011;42318;48.452;19.526;2023-08-08T03:25:37;0.35;;;0.20;;
56413;SDS011;42318;48.452;19.526;2023-08-08T03:30:38;0.50;;;0.30;;
56413;SDS011;42318;48.452;19.526;2023-08-08T03:35:39;1.05;;;0.30;;
56413;SDS011;42318;48.452;19.526;2023-08-08T03:40:40;0.90;;;0.28;;
56413;SDS011;42318;48.452;19.526;2023-08-08T03:45:40;0.57;;;0.38;;
56413;SDS011;42318;48.452;19.526;2023-08-08T03:50:41;0.63;;;0.20;;
56413;SDS011;42318;48.452;19.526;2023-08-08T03:55:42;0.73;;;0.30;;
56413;SDS011;42318;48.452;19.526;2023-08-08T04:00:43;1.00;;;0.30;;
56413;SDS011;42318;48.452;19.526;2023-08-08T04:05:46;0.17;;;0.13;;
56413;SDS011;42318;48.452;19.526;2023-08-08T04:10:47;1.27;;;0.75;;
56413;SDS011;42318;48.452;19.526;2023-08-08T04:15:48;0.52;;;0.20;;
56413;SDS011;42318;48.452;19.526;2023-08-08T04:20:52;0.75;;;0.20;;
56413;SDS011;42318;48.452;19.526;2023-08-08T04:25:53;0.20;;;0.20;;
56413;SDS011;42318;48.452;19.526;2023-08-08T04:30:56;0.30;;;0.30;;
56413;SDS011;42318;48.452;19.526;2023-08-08T04:35:57;0.63;;;0.20;;
56413;SDS011;42318;48.452;19.526;2023-08-08T04:40:59;0.73;;;0.30;;
56413;SDS011;42318;48.452;19.526;2023-08-08T04:46:00;0.28;;;0.20;;
56413;SDS011;42318;48.452;19.526;2023-08-08T04:51:01;0.20;;;0.10;;
56413;SDS011;42318;48.452;19.526;2023-08-08T04:56:02;0.77;;;0.32;;
56413;SDS011;42318;48.452;19.526;2023-08-08T05:01:03;0.60;;;0.20;;
56413;SDS011;42318;48.452;19.526;2023-08-08T05:06:04;0.20;;;0.20;;
56413;SDS011;42318;48.452;19.526;2023-08-08T05:11:05;0.10;;;0.10;;
56413;SDS011;42318;48.452;19.526;2023-08-08T05:16:06;0.75;;;0.25;;
56413;SDS011;42318;48.452;19.526;2023-08-08T05:21:07;0.50;;;0.20;;
56413;SDS011;42318;48.452;19.526;2023-08-08T05:26:07;0.20;;;0.10;;
56413;SDS011;42318;48.452;19.526;2023-08-08T05:31:08;0.57;;;0.30;;
56413;SDS011;42318;48.452;19.526;2023-08-08T05:36:10;0.15;;;0.15;;
56413;SDS011;42318;48.452;19.526;2023-08-08T05:41:11;0.38;;;0.20;;
56413;SDS011;42318;48.452;19.526;2023-08-08T05:46:12;0.68;;;0.32;;
56413;SDS011;42318;48.452;19.526;2023-08-08T05:51:13;0.50;;;0.20;;
56413;SDS011;42318;48.452;19.526;2023-08-08T05:56:14;0.45;;;0.20;;
56413;SDS011;42318;48.452;19.526;2023-08-08T06:01:14;0.70;;;0.40;;
56413;SDS011;42318;48.452;19.526;2023-08-08T06:06:15;0.40;;;0.15;;
56413;SDS011;42318;48.452;19.526;2023-08-08T06:11:16;0.68;;;0.30;;
56413;SDS011;42318;48.452;19.526;2023-08-08T06:16:17;1.52;;;0.30;;
56413;SDS011;42318;48.452;19.526;2023-08-08T06:21:19;0.52;;;0.22;;
56413;SDS011;42318;48.452;19.526;2023-08-08T06:26:20;0.77;;;0.30;;
56413;SDS011;42318;48.452;19.526;2023-08-08T06:31:24;0.45;;;0.25;;
56413;SDS011;42318;48.452;19.526;2023-08-08T06:36:25;0.32;;;0.20;;
56413;SDS011;42318;48.452;19.526;2023-08-08T06:41:26;0.88;;;0.20;;
56413;SDS011;42318;48.452;19.526;2023-08-08T06:46:26;0.20;;;0.20;;
56413;SDS011;42318;48.452;19.526;2023-08-08T06:51:27;0.55;;;0.30;;
56413;SDS011;42318;48.452;19.526;2023-08-08T06:56:28;0.45;;;0.20;;
56413;SDS011;42318;48.452;19.526;2023-08-08T07:01:29;0.68;;;0.20;;
56413;SDS011;42318;48.452;19.526;2023-08-08T07:06:30;0.20;;;0.03;;
56413;SDS011;42318;48.452;19.526;2023-08-08T07:11:31;0.95;;;0.20;;
56413;SDS011;42318;48.452;19.526;2023-08-08T07:16:32;0.30;;;0.30;;
56413;SDS011;42318;48.452;19.526;2023-08-08T07:21:33;0.20;;;0.20;;
56413;SDS011;42318;48.452;19.526;2023-08-08T07:26:33;0.20;;;0.20;;
56413;SDS011;42318;48.452;19.526;2023-08-08T07:31:34;0.93;;;0.30;;
56413;SDS011;42318;48.452;19.526;2023-08-08T07:36:35;0.20;;;0.10;;
56413;SDS011;42318;48.452;19.526;2023-08-08T07:41:36;0.40;;;0.20;;
56413;SDS011;42318;48.452;19.526;2023-08-08T07:46:37;0.82;;;0.30;;
56413;SDS011;42318;48.452;19.526;2023-08-08T07:51:37;0.63;;;0.20;;
56413;SDS011;42318;48.452;19.526;2023-08-08T07:56:38;0.30;;;0.17;;
56413;SDS011;42318;48.452;19.526;2023-08-08T08:01:39;1.65;;;0.25;;
56413;SDS011;42318;48.452;19.526;2023-08-08T08:06:40;0.68;;;0.20;;
56413;SDS011;42318;48.452;19.526;2023-08-08T08:11:40;0.80;;;0.20;;
56413;SDS011;42318;48.452;19.526;2023-08-08T08:16:43;0.45;;;0.40;;
56413;SDS011;42318;48.452;19.526;2023-08-08T08:21:45;0.30;;;0.20;;
56413;SDS011;42318;48.452;19.526;2023-08-08T08:26:46;0.20;;;0.10;;
56413;SDS011;42318;48.452;19.526;2023-08-08T08:31:47;1.15;;;0.35;;
56413;SDS011;42318;48.452;19.526;2023-08-08T08:36:48;1.27;;;0.20;;
56413;SDS011;42318;48.452;19.526;2023-08-08T08:41:49;0.50;;;0.30;;
56413;SDS011;42318;48.452;19.526;2023-08-08T08:46:59;0.20;;;0.20;;
56413;SDS011;42318;48.452;19.526;2023-08-08T08:52:03;0.88;;;0.40;;
56413;SDS011;42318;48.452;19.526;2023-08-08T08:57:07;0.80;;;0.20;;
56413;SDS011;42318;48.452;19.526;2023-08-08T09:02:08;0.55;;;0.20;;
56413;SDS011;42318;48.452;19.526;2023-08-08T09:07:11;3.90;;;0.40;;
56413;SDS011;42318;48.452;19.526;2023-08-08T09:12:13;0.30;;;0.10;;
56413;SDS011;42318;48.452;19.526;2023-08-08T09:17:14;0.15;;;0.10;;
56413;SDS011;42318;48.452;19.526;2023-08-08T09:22:14;1.08;;;0.20;;
56413;SDS011;42318;48.452;19.526;2023-08-08T09:27:15;0.30;;;0.20;;
56413;SDS011;42318;48.452;19.526;2023-08-08T09:32:17;0.30;;;0.20;;
56413;SDS011;42318;48.452;19.526;2023-08-08T09:37:18;0.85;;;0.25;;
56413;SDS011;42318;48.452;19.526;2023-08-08T09:42:20;0.80;;;0.28;;
56413;SDS011;42318;48.452;19.526;2023-08-08T09:47:21;0.75;;;0.25;;
56413;SDS011;42318;48.452;19.526;2023-08-08T09:52:22;6.93;;;0.47;;
56413;SDS011;42318;48.452;19.526;2023-08-08T09:57:23;2.60;;;0.63;;
56413;SDS011;42318;48.452;19.526;2023-08-08T10:02:26;0.55;;;0.30;;
56413;SDS011;42318;48.452;19.526;2023-08-08T10:07:28;0.70;;;0.30;;
56413;SDS011;42318;48.452;19.526;2023-08-08T10:12:29;0.80;;;0.30;;
56413;SDS011;42318;48.452;19.526;2023-08-08T10:17:34;2.08;;;0.40;;
56413;SDS011;42318;48.452;19.526;2023-08-08T10:22:36;0.93;;;0.40;;
56413;SDS011;42318;48.452;19.526;2023-08-08T10:27:39;0.93;;;0.50;;
56413;SDS011;42318;48.452;19.526;2023-08-08T10:32:41;1.63;;;0.40;;
56413;SDS011;42318;48.452;19.526;2023-08-08T10:37:51;0.70;;;0.45;;
56413;SDS011;42318;48.452;19.526;2023-08-08T10:42:54;2.05;;;0.90;;
56413;SDS011;42318;48.452;19.526;2023-08-08T10:47:54;1.55;;;0.70;;
56413;SDS011;42318;48.452;19.526;2023-08-08T10:52:55;2.08;;;0.47;;
56413;SDS011;42318;48.452;19.526;2023-08-08T11:03:00;2.38;;;0.68;;
56413;SDS011;42318;48.452;19.526;2023-08-08T11:08:03;3.67;;;0.75;;
56413;SDS011;42318;48.452;19.526;2023-08-08T11:13:06;0.85;;;0.57;;
56413;SDS011;42318;48.452;19.526;2023-08-08T11:18:08;2.13;;;0.50;;
56413;SDS011;42318;48.452;19.526;2023-08-08T11:23:10;0.32;;;0.32;;
56413;SDS011;42318;48.452;19.526;2023-08-08T11:28:12;1.73;;;0.68;;
56413;SDS011;42318;48.452;19.526;2023-08-08T11:33:14;0.93;;;0.50;;
56413;SDS011;42318;48.452;19.526;2023-08-08T11:38:16;2.03;;;0.65;;
56413;SDS011;42318;48.452;19.526;2023-08-08T11:43:17;2.17;;;0.90;;
56413;SDS011;42318;48.452;19.526;2023-08-08T11:48:20;0.80;;;0.50;;
56413;SDS011;42318;48.452;19.526;2023-08-08T11:53:22;1.05;;;0.70;;
56413;SDS011;42318;48.452;19.526;2023-08-08T11:58:24;2.45;;;0.70;;
56413;SDS011;42318;48.452;19.526;2023-08-08T12:03:25;1.60;;;0.50;;
56413;SDS011;42318;48.452;19.526;2023-08-08T12:08:29;1.40;;;0.52;;
56413;SDS011;42318;48.452;19.526;2023-08-08T12:13:30;1.45;;;0.70;;
56413;SDS011;42318;48.452;19.526;2023-08-08T12:18:32;2.63;;;0.70;;
56413;SDS011;42318;48.452;19.526;2023-08-08T12:23:33;1.45;;;0.77;;
56413;SDS011;42318;48.452;19.526;2023-08-08T12:28:35;2.45;;;0.77;;
56413;SDS011;42318;48.452;19.526;2023-08-08T12:33:36;1.10;;;0.65;;
56413;SDS011;42318;48.452;19.526;2023-08-08T12:38:37;2.55;;;0.90;;
56413;SDS011;42318;48.452;19.526;2023-08-08T12:43:38;1.38;;;0.70;;
56413;SDS011;42318;48.452;19.526;2023-08-08T12:48:40;1.88;;;0.70;;
56413;SDS011;42318;48.452;19.526;2023-08-08T12:53:41;1.17;;;0.70;;
56413;SDS011;42318;48.452;19.526;2023-08-08T12:58:42;1.45;;;0.60;;
56413;SDS011;42318;48.452;19.526;2023-08-08T13:03:43;3.15;;;1.33;;
56413;SDS011;42318;48.452;19.526;2023-08-08T13:08:44;1.25;;;0.60;;
56413;SDS011;42318;48.452;19.526;2023-08-08T13:13:44;2.00;;;1.00;;
56413;SDS011;42318;48.452;19.526;2023-08-08T13:18:45;1.30;;;0.80;;
56413;SDS011;42318;48.452;19.526;2023-08-08T13:23:46;2.53;;;0.75;;
56413;SDS011;42318;48.452;19.526;2023-08-08T13:28:47;1.13;;;0.70;;
56413;SDS011;42318;48.452;19.526;2023-08-08T13:33:48;0.55;;;0.30;;
56413;SDS011;42318;48.452;19.526;2023-08-08T13:38:49;0.57;;;0.40;;
56413;SDS011;42318;48.452;19.526;2023-08-08T13:43:50;1.65;;;0.40;;
56413;SDS011;42318;48.452;19.526;2023-08-08T13:48:51;2.20;;;0.70;;
56413;SDS011;42318;48.452;19.526;2023-08-08T13:53:51;1.55;;;0.60;;
56413;SDS011;42318;48.452;19.526;2023-08-08T13:58:52;1.10;;;0.60;;
56413;SDS011;42318;48.452;19.526;2023-08-08T14:03:53;3.20;;;0.73;;
56413;SDS011;42318;48.452;19.526;2023-08-08T14:08:54;1.75;;;0.65;;
56413;SDS011;42318;48.452;19.526;2023-08-08T14:13:55;1.17;;;0.75;;
56413;SDS011;42318;48.452;19.526;2023-08-08T14:18:55;1.52;;;0.70;;
56413;SDS011;42318;48.452;19.526;2023-08-08T14:23:56;1.23;;;0.60;;
56413;SDS011;42318;48.452;19.526;2023-08-08T14:28:57;2.88;;;0.70;;
56413;SDS011;42318;48.452;19.526;2023-08-08T14:33:58;1.15;;;0.60;;
56413;SDS011;42318;48.452;19.526;2023-08-08T14:38:59;1.45;;;0.60;;
56413;SDS011;42318;48.452;19.526;2023-08-08T14:43:59;2.17;;;0.60;;
56413;SDS011;42318;48.452;19.526;2023-08-08T14:49:00;1.05;;;0.50;;
56413;SDS011;42318;48.452;19.526;2023-08-08T14:54:01;1.33;;;0.75;;
56413;SDS011;42318;48.452;19.526;2023-08-08T14:59:02;1.85;;;1.02;;
56413;SDS011;42318;48.452;19.526;2023-08-08T15:04:04;1.17;;;0.60;;
56413;SDS011;42318;48.452;19.526;2023-08-08T15:09:05;1.48;;;0.80;;
56413;SDS011;42318;48.452;19.526;2023-08-08T15:14:06;2.63;;;1.20;;
56413;SDS011;42318;48.452;19.526;2023-08-08T15:19:07;1.40;;;0.98;;
56413;SDS011;42318;48.452;19.526;2023-08-08T15:24:08;1.67;;;0.85;;
56413;SDS011;42318;48.452;19.526;2023-08-08T15:29:10;1.95;;;1.15;;
56413;SDS011;42318;48.452;19.526;2023-08-08T15:34:11;1.85;;;0.80;;
56413;SDS011;42318;48.452;19.526;2023-08-08T15:39:11;2.90;;;1.25;;
56413;SDS011;42318;48.452;19.526;2023-08-08T15:44:12;3.25;;;1.10;;
56413;SDS011;42318;48.452;19.526;2023-08-08T15:49:13;2.58;;;1.63;;
56413;SDS011;42318;48.452;19.526;2023-08-08T15:54:14;2.58;;;0.90;;
56413;SDS011;42318;48.452;19.526;2023-08-08T15:59:15;3.58;;;0.90;;
56413;SDS011;42318;48.452;19.526;2023-08-08T16:04:16;4.72;;;1.27;;
56413;SDS011;42318;48.452;19.526;2023-08-08T16:09:17;2.25;;;1.17;;
56413;SDS011;42318;48.452;19.526;2023-08-08T16:14:17;2.95;;;1.08;;
56413;SDS011;42318;48.452;19.526;2023-08-08T16:19:18;1.40;;;0.80;;
56413;SDS011;42318;48.452;19.526;2023-08-08T16:24:19;3.65;;;1.23;;
56413;SDS011;42318;48.452;19.526;2023-08-08T16:29:20;4.82;;;1.10;;
56413;SDS011;42318;48.452;19.526;2023-08-08T16:34:21;2.60;;;1.00;;
56413;SDS011;42318;48.452;19.526;2023-08-08T16:39:22;2.53;;;1.38;;
56413;SDS011;42318;48.452;19.526;2023-08-08T16:44:23;1.27;;;0.75;;
56413;SDS011;42318;48.452;19.526;2023-08-08T16:49:24;1.38;;;0.98;;
56413;SDS011;42318;48.452;19.526;2023-08-08T16:54:25;4.18;;;1.23;;
56413;SDS011;42318;48.452;19.526;2023-08-08T16:59:26;1.55;;;0.80;;
56413;SDS011;42318;48.452;19.526;2023-08-08T17:04:27;1.48;;;0.98;;
56413;SDS011;42318;48.452;19.526;2023-08-08T17:09:28;1.95;;;0.95;;
56413;SDS011;42318;48.452;19.526;2023-08-08T17:14:29;2.95;;;1.30;;
56413;SDS011;42318;48.452;19.526;2023-08-08T17:19:29;2.75;;;1.27;;
56413;SDS011;42318;48.452;19.526;2023-08-08T17:24:30;1.80;;;0.90;;
56413;SDS011;42318;48.452;19.526;2023-08-08T17:29:31;2.78;;;1.20;;
56413;SDS011;42318;48.452;19.526;2023-08-08T17:34:32;3.67;;;1.10;;
56413;SDS011;42318;48.452;19.526;2023-08-08T17:39:33;2.95;;;1.50;;
56413;SDS011;42318;48.452;19.526;2023-08-08T17:44:33;7.70;;;1.15;;
56413;SDS011;42318;48.452;19.526;2023-08-08T17:49:35;3.10;;;1.13;;
56413;SDS011;42318;48.452;19.526;2023-08-08T17:54:36;4.82;;;1.20;;
56413;SDS011;42318;48.452;19.526;2023-08-08T17:59:37;7.15;;;1.70;;
56413;SDS011;42318;48.452;19.526;2023-08-08T18:04:37;4.88;;;1.15;;
56413;SDS011;42318;48.452;19.526;2023-08-08T18:09:38;7.55;;;1.30;;
56413;SDS011;42318;48.452;19.526;2023-08-08T18:14:39;5.50;;;1.42;;
56413;SDS011;42318;48.452;19.526;2023-08-08T18:19:40;5.95;;;1.17;;
56413;SDS011;42318;48.452;19.526;2023-08-08T18:24:41;5.85;;;1.85;;
56413;SDS011;42318;48.452;19.526;2023-08-08T18:29:42;8.90;;;1.30;;
56413;SDS011;42318;48.452;19.526;2023-08-08T18:34:43;5.10;;;1.35;;
56413;SDS011;42318;48.452;19.526;2023-08-08T18:39:44;6.40;;;1.40;;
56413;SDS011;42318;48.452;19.526;2023-08-08T18:44:45;2.83;;;1.13;;
56413;SDS011;42318;48.452;19.526;2023-08-08T18:49:46;2.15;;;1.20;;
56413;SDS011;42318;48.452;19.526;2023-08-08T18:54:46;4.55;;;1.38;;
56413;SDS011;42318;48.452;19.526;2023-08-08T18:59:48;1.60;;;0.90;;
56413;SDS011;42318;48.452;19.526;2023-08-08T19:04:49;5.53;;;1.55;;
56413;SDS011;42318;48.452;19.526;2023-08-08T19:09:50;8.25;;;1.33;;
56413;SDS011;42318;48.452;19.526;2023-08-08T19:14:51;4.60;;;1.63;;
56413;SDS011;42318;48.452;19.526;2023-08-08T19:19:51;3.58;;;1.40;;
56413;SDS011;42318;48.452;19.526;2023-08-08T19:24:52;2.50;;;1.15;;
56413;SDS011;42318;48.452;19.526;2023-08-08T19:29:53;8.13;;;1.50;;
56413;SDS011;42318;48.452;19.526;2023-08-08T19:34:54;13.25;;;3.78;;
56413;SDS011;42318;48.452;19.526;2023-08-08T19:39:56;4.53;;;1.10;;
56413;SDS011;42318;48.452;19.526;2023-08-08T19:44:57;3.40;;;1.30;;
56413;SDS011;42318;48.452;19.526;2023-08-08T19:49:58;8.85;;;2.13;;
56413;SDS011;42318;48.452;19.526;2023-08-08T19:54:58;9.70;;;1.40;;
56413;SDS011;42318;48.452;19.526;2023-08-08T20:00:00;10.05;;;2.15;;
56413;SDS011;42318;48.452;19.526;2023-08-08T20:05:01;3.75;;;1.45;;
56413;SDS011;42318;48.452;19.526;2023-08-08T20:10:02;6.15;;;1.48;;
56413;SDS011;42318;48.452;19.526;2023-08-08T20:15:05;3.97;;;1.90;;
56413;SDS011;42318;48.452;19.526;2023-08-08T20:20:07;4.43;;;1.38;;
56413;SDS011;42318;48.452;19.526;2023-08-08T20:25:09;7.22;;;2.03;;
56413;SDS011;42318;48.452;19.526;2023-08-08T20:30:11;4.72;;;1.83;;
56413;SDS011;42318;48.452;19.526;2023-08-08T20:35:12;3.90;;;1.20;;
56413;SDS011;42318;48.452;19.526;2023-08-08T20:40:13;6.13;;;1.30;;
56413;SDS011;42318;48.452;19.526;2023-08-08T20:45:14;5.70;;;1.65;;
56413;SDS011;42318;48.452;19.526;2023-08-08T20:50:15;4.30;;;1.30;;
56413;SDS011;42318;48.452;19.526;2023-08-08T20:55:16;7.47;;;1.58;;
56413;SDS011;42318;48.452;19.526;2023-08-08T21:00:16;4.00;;;1.60;;
56413;SDS011;42318;48.452;19.526;2023-08-08T21:05:18;3.85;;;1.45;;
56413;SDS011;42318;48.452;19.526;2023-08-08T21:10:19;6.88;;;1.58;;
56413;SDS011;42318;48.452;19.526;2023-08-08T21:15:19;5.68;;;1.50;;
56413;SDS011;42318;48.452;19.526;2023-08-08T21:20:20;4.32;;;1.10;;
56413;SDS011;42318;48.452;19.526;2023-08-08T21:25:21;10.35;;;1.30;;
56413;SDS011;42318;48.452;19.526;2023-08-08T21:30:22;4.03;;;1.20;;
56413;SDS011;42318;48.452;19.526;2023-08-08T21:35:23;5.28;;;1.20;;
56413;SDS011;42318;48.452;19.526;2023-08-08T21:40:24;2.72;;;1.15;;
56413;SDS011;42318;48.452;19.526;2023-08-08T21:45:25;3.33;;;1.25;;
56413;SDS011;42318;48.452;19.526;2023-08-08T21:50:25;2.92;;;0.90;;
56413;SDS011;42318;48.452;19.526;2023-08-08T21:55:26;5.55;;;1.70;;
56413;SDS011;42318;48.452;19.526;2023-08-08T22:00:27;3.45;;;1.10;;
56413;SDS011;42318;48.452;19.526;2023-08-08T22:05:29;3.92;;;1.08;;
56413;SDS011;42318;48.452;19.526;2023-08-08T22:10:30;4.75;;;1.10;;
56413;SDS011;42318;48.452;19.526;2023-08-08T22:15:33;3.72;;;1.02;;
56413;SDS011;42318;48.452;19.526;2023-08-08T22:20:34;1.70;;;0.90;;
56413;SDS011;42318;48.452;19.526;2023-08-08T22:25:35;2.60;;;1.05;;
56413;SDS011;42318;48.452;19.526;2023-08-08T22:30:36;4.05;;;0.88;;
56413;SDS011;42318;48.452;19.526;2023-08-08T22:35:37;6.35;;;1.30;;
56413;SDS011;42318;48.452;19.526;2023-08-08T22:40:38;3.58;;;1.20;;
56413;SDS011;42318;48.452;19.526;2023-08-08T22:45:39;2.00;;;1.10;;
56413;SDS011;42318;48.452;19.526;2023-08-08T22:50:40;3.50;;;1.05;;
56413;SDS011;42318;48.452;19.526;2023-08-08T22:55:42;4.13;;;1.20;;
56413;SDS011;42318;48.452;19.526;2023-08-08T23:00:43;1.95;;;0.95;;
56413;SDS011;42318;48.452;19.526;2023-08-08T23:05:44;3.60;;;0.82;;
56413;SDS011;42318;48.452;19.526;2023-08-08T23:10:45;2.15;;;1.08;;
56413;SDS011;42318;48.452;19.526;2023-08-08T23:15:46;2.65;;;1.10;;
56413;SDS011;42318;48.452;19.526;2023-08-08T23:20:47;2.25;;;1.10;;
56413;SDS011;42318;48.452;19.526;2023-08-08T23:25:51;2.90;;;1.33;;
56413;SDS011;42318;48.452;19.526;2023-08-08T23:30:52;1.58;;;0.80;;
56413;SDS011;42318;48.452;19.526;2023-08-08T23:35:52;2.10;;;0.80;;
56413;SDS011;42318;48.452;19.526;2023-08-08T23:40:53;2.30;;;1.17;;
56413;SDS011;42318;48.452;19.526;2023-08-08T23:45:54;1.38;;;0.82;;
56413;SDS011;42318;48.452;19.526;2023-08-08T23:50:55;2.30;;;0.93;;
56413;SDS011;42318;48.452;19.526;2023-08-08T23:55:56;2.33;;;0.90;;
